Time;durP1;ratioP1;P1;durP2;ratioP2;P2;SDS_P1;SDS_P2;PMS_P1;PMS_P2;Temp;Humidity;BMP_temperature;BMP_pressure;BME280_temperature;BME280_humidity;BME280_pressure;Samples;Min_cycle;Max_cycle;Signal;HPM_P1;HPM_P2
2023/06/30 00:01:48;;;;;;;;;66.75;52.25;;;;;18.67;100.00;101344.44;5039609;28;45623;-77
2023/06/30 00:04:29;;;;;;;;;22.67;22.67;;;;;18.96;99.51;101402.16;5035775;28;45418;-77
2023/06/30 00:07:05;;;;;;;;;10.67;9.00;;;;;18.71;99.50;101373.59;5014052;28;45719;-77
2023/06/30 00:09:34;;;;;;;;;62.75;49.00;;;;;18.67;98.72;101381.94;5027588;28;45554;-77
2023/06/30 00:11:59;;;;;;;;;38.50;32.00;;;;;18.73;99.64;101392.22;5043340;28;45675;-77
2023/06/30 00:14:34;;;;;;;;;30.25;29.50;;;;;18.55;98.70;101369.44;5029983;28;45716;-77
2023/06/30 00:17:03;;;;;;;;;48.25;41.50;;;;;18.70;99.61;101385.28;5022910;28;45413;-77
2023/06/30 00:19:32;;;;;;;;;45.00;38.75;;;;;18.85;97.91;101418.13;5017528;28;45536;-77
2023/06/30 00:22:01;;;;;;;;;55.75;46.50;;;;;18.94;98.74;101430.03;5025646;28;45711;-77
2023/06/30 00:24:28;;;;;;;;;13.33;7.00;;;;;18.41;97.22;101335.56;5025610;28;46814;-77
2023/06/30 00:26:54;;;;;;;;;56.50;45.25;;;;;18.48;96.98;101355.59;5013846;28;45444;-77
2023/06/30 00:29:20;;;;;;;;;49.25;41.25;;;;;18.39;97.96;101342.00;5036675;28;45419;-76
2023/06/30 00:31:45;;;;;;;;;16.25;16.25;;;;;18.55;97.61;101372.94;5024128;28;45554;-76
2023/06/30 00:34:14;;;;;;;;;13.00;11.75;;;;;18.62;97.09;101384.09;5017855;28;47103;-76
2023/06/30 00:36:51;;;;;;;;;2.67;1.67;;;;;18.76;96.43;101421.47;5037497;28;45728;-77
2023/06/30 00:39:19;;;;;;;;;44.00;35.25;;;;;18.49;97.50;101369.81;5032088;28;45476;-77
2023/06/30 00:41:54;;;;;;;;;42.25;35.00;;;;;18.53;96.94;101382.06;5012145;28;45642;-77
2023/06/30 00:44:20;;;;;;;;;10.50;10.00;;;;;18.34;97.42;101368.22;5024856;28;47146;-78
2023/06/30 00:47:00;;;;;;;;;;;;;;;;;;;;;
2023/06/30 00:49:27;;;;;;;;;5.33;5.33;;;;;18.32;96.18;101383.56;5031105;28;67205;-76
2023/06/30 00:51:54;;;;;;;;;36.00;31.50;;;;;18.72;96.03;101457.50;5035090;28;45452;-77
2023/06/30 00:54:22;;;;;;;;;27.25;26.75;;;;;18.63;96.43;101450.13;5017120;28;47151;-77
2023/06/30 00:56:47;;;;;;;;;16.75;14.25;;;;;18.68;96.23;101456.84;5017536;28;45356;-77
2023/06/30 00:59:16;;;;;;;;;39.50;34.50;;;;;18.36;96.31;101410.00;5030972;28;45503;-77
2023/06/30 01:01:58;;;;;;;;;9.67;9.67;;;;;17.92;96.74;101350.66;5022835;28;45310;-79
2023/06/30 01:04:36;;;;;;;;;9.33;6.67;;;;;17.89;96.81;101364.25;5029960;28;46577;-76
2023/06/30 01:07:25;;;;;;;;;3.33;1.33;;;;;17.83;96.78;101373.56;5015510;28;45442;-77
2023/06/30 01:10:13;;;;;;;;;0.00;0.00;;;;;17.97;96.81;101391.34;5050224;28;45413;-77
2023/06/30 01:12:43;;;;;;;;;4.67;4.00;;;;;17.76;97.07;101382.97;5034019;28;45358;-76
2023/06/30 01:15:14;;;;;;;;;0.00;0.00;;;;;18.27;97.59;101463.34;5044283;28;45592;-77
2023/06/30 01:17:48;;;;;;;;;0.00;0.00;;;;;17.84;97.54;101398.50;5008577;28;45492;-77
2023/06/30 01:20:17;;;;;;;;;10.33;10.00;;;;;18.02;97.74;101421.34;5039186;28;45579;-78
2023/06/30 01:22:53;;;;;;;;;0.00;0.00;;;;;18.23;97.27;101458.22;5036391;28;45440;-77
2023/06/30 01:25:25;;;;;;;;;8.00;6.00;;;;;17.83;97.32;101400.34;5037031;28;45548;-77
2023/06/30 01:27:55;;;;;;;;;1.00;0.00;;;;;17.91;97.54;101406.00;5037332;28;45546;-77
2023/06/30 01:30:29;;;;;;;;;5.00;2.67;;;;;18.25;97.93;101473.31;5035051;28;45817;-77
2023/06/30 01:32:58;;;;;;;;;1.00;0.00;;;;;17.80;97.83;101405.88;5023114;28;45475;-77
2023/06/30 01:35:24;;;;;;;;;0.00;0.00;;;;;17.89;97.77;101413.31;5041499;28;45611;-77
2023/06/30 01:37:50;;;;;;;;;1.00;0.00;;;;;17.66;97.88;101376.53;5017229;28;45608;-78
2023/06/30 01:40:18;;;;;;;;;35.75;29.00;;;;;18.05;99.14;101456.78;5039765;28;45450;-77
2023/06/30 01:42:44;;;;;;;;;24.00;22.33;;;;;17.96;99.21;101449.41;5026505;28;45384;-77
2023/06/30 01:45:12;;;;;;;;;33.25;31.25;;;;;17.70;99.78;101415.50;5034093;28;45466;-77
2023/06/30 01:47:43;;;;;;;;;6.33;5.33;;;;;17.64;99.87;101399.84;5042899;28;45393;-77
2023/06/30 01:50:09;;;;;;;;;26.00;24.67;;;;;17.67;98.82;101394.28;5047263;28;46139;-77
2023/06/30 01:52:40;;;;;;;;;12.00;11.33;;;;;17.52;99.14;101392.59;5030524;28;45530;-77
2023/06/30 01:55:08;;;;;;;;;1.67;1.67;;;;;17.86;99.49;101452.78;5016502;28;46119;-77
2023/06/30 01:57:36;;;;;;;;;11.00;11.00;;;;;17.80;98.16;101424.59;5033152;28;45674;-77
2023/06/30 02:00:04;;;;;;;;;11.00;9.00;;;;;17.55;98.74;101392.41;5041295;28;45386;-76
2023/06/30 02:02:34;;;;;;;;;0.00;0.00;;;;;17.57;99.41;101382.50;5035619;28;45518;-77
2023/06/30 02:05:08;;;;;;;;;10.33;10.33;;;;;17.54;97.35;101380.84;5019709;28;46699;-76
2023/06/30 02:07:34;;;;;;;;;0.00;0.00;;;;;18.02;97.67;101470.38;5011709;28;45619;-77
2023/06/30 02:10:03;;;;;;;;;4.33;3.00;;;;;17.76;97.95;101427.59;5020406;28;45420;-77
2023/06/30 02:12:35;;;;;;;;;12.00;10.33;;;;;17.81;98.21;101439.69;5007422;28;46256;-77
2023/06/30 02:15:00;;;;;;;;;14.00;13.00;;;;;17.63;99.15;101404.34;5021063;28;45724;-77
2023/06/30 02:17:35;;;;;;;;;14.00;13.00;;;;;17.78;98.39;101426.53;5031582;28;45369;-77
2023/06/30 02:20:05;;;;;;;;;11.67;10.33;;;;;17.41;97.82;101371.06;5018719;28;45623;-77
2023/06/30 02:22:41;;;;;;;;;16.33;13.00;;;;;17.39;99.59;101354.25;5027277;28;45452;-77
2023/06/30 02:25:07;;;;;;;;;14.33;14.00;;;;;17.74;99.30;101416.13;5036953;28;48026;-77
2023/06/30 02:27:36;;;;;;;;;4.33;4.33;;;;;17.95;97.56;101452.16;5026910;28;45456;-78
2023/06/30 02:30:04;;;;;;;;;15.00;15.00;;;;;17.50;97.21;101381.16;5022710;28;45393;-76
2023/06/30 02:32:31;;;;;;;;;13.00;12.00;;;;;17.76;97.92;101432.94;5039377;28;45641;-77
2023/06/30 02:34:59;;;;;;;;;12.00;11.00;;;;;18.01;97.32;101470.47;5035719;28;45607;-76
2023/06/30 02:37:24;;;;;;;;;13.33;11.67;;;;;17.43;97.54;101377.19;5045379;28;45431;-76
2023/06/30 02:39:52;;;;;;;;;4.00;1.67;;;;;17.45;97.05;101389.47;5040047;28;45424;-77
2023/06/30 02:42:17;;;;;;;;;20.67;18.00;;;;;17.61;96.73;101424.97;5037291;28;45377;-77
2023/06/30 02:44:43;;;;;;;;;2.33;1.00;;;;;17.32;96.67;101364.50;5042205;28;46353;-77
2023/06/30 02:47:08;;;;;;;;;10.67;10.67;;;;;17.85;95.68;101453.75;5040740;28;45384;-76
2023/06/30 02:49:37;;;;;;;;;10.33;8.67;;;;;17.49;96.40;101412.41;5022681;28;45314;-76
2023/06/30 02:52:03;;;;;;;;;13.00;11.67;;;;;17.54;96.38;101404.91;5037101;28;45555;-77
2023/06/30 02:54:28;;;;;;;;;0.00;0.00;;;;;17.88;96.64;101469.59;5029042;28;47561;-77
2023/06/30 02:56:54;;;;;;;;;15.33;11.33;;;;;17.23;96.47;101357.09;5023024;28;45486;-77
2023/06/30 02:59:22;;;;;;;;;15.00;14.00;;;;;17.53;96.34;101408.56;5018486;28;45627;-77
2023/06/30 03:01:47;;;;;;;;;0.00;0.00;;;;;17.56;96.71;101418.22;5038425;28;45464;-77
2023/06/30 03:04:16;;;;;;;;;22.33;18.33;;;;;17.46;97.99;101393.88;5038026;28;46923;-76
2023/06/30 03:06:44;;;;;;;;;17.33;13.00;;;;;17.38;97.10;101376.59;5021401;28;45630;-77
2023/06/30 03:09:13;;;;;;;;;10.00;8.00;;;;;17.63;95.89;101409.72;5018921;28;45378;-77
2023/06/30 03:11:41;;;;;;;;;7.33;7.33;;;;;17.59;96.14;101420.69;5023099;28;45255;-77
2023/06/30 03:14:06;;;;;;;;;4.00;4.00;;;;;17.86;96.44;101484.91;5011951;28;45962;-76
2023/06/30 03:16:36;;;;;;;;;11.67;10.00;;;;;17.55;95.48;101416.47;5013736;28;45464;-77
2023/06/30 03:19:02;;;;;;;;;7.33;5.33;;;;;17.35;95.40;101395.53;5019555;28;45500;-77
2023/06/30 03:21:28;;;;;;;;;8.67;8.67;;;;;17.47;96.10;101414.28;5016687;28;45555;-77
2023/06/30 03:23:53;;;;;;;;;8.00;8.00;;;;;17.41;96.91;101409.34;5019278;28;47137;-77
2023/06/30 03:26:19;;;;;;;;;9.00;8.67;;;;;17.32;96.75;101396.59;5042085;28;45389;-77
2023/06/30 03:28:47;;;;;;;;;10.00;10.00;;;;;17.11;95.22;101360.59;5017655;28;45346;-78
2023/06/30 03:31:13;;;;;;;;;2.67;1.00;;;;;17.02;95.05;101361.16;5017789;28;45544;-77
2023/06/30 03:33:38;;;;;;;;;7.00;7.00;;;;;17.43;95.72;101417.28;5016472;28;46967;-77
2023/06/30 03:36:04;;;;;;;;;0.00;0.00;;;;;17.43;96.51;101422.63;5038866;28;45489;-77
2023/06/30 03:38:30;;;;;;;;;23.67;22.67;;;;;17.01;97.40;101362.16;5037466;28;45526;-77
2023/06/30 03:40:56;;;;;;;;;13.00;13.00;;;;;17.10;95.66;101350.84;5043740;28;45515;-77
2023/06/30 03:43:24;;;;;;;;;12.67;12.67;;;;;17.17;96.61;101378.91;5040207;28;45388;-77
2023/06/30 03:45:50;;;;;;;;;30.50;28.50;;;;;17.03;96.30;101346.84;5047295;28;45266;-77
2023/06/30 03:48:21;;;;;;;;;47.25;38.00;;;;;17.21;96.23;101380.44;5050456;28;45476;-77
2023/06/30 03:50:51;;;;;;;;;25.25;23.25;;;;;17.62;96.36;101474.84;5020597;28;45412;-77
2023/06/30 03:53:23;;;;;;;;;30.33;27.00;;;;;17.47;97.29;101442.88;5011509;28;47303;-77
2023/06/30 03:55:48;;;;;;;;;33.00;30.33;;;;;17.17;98.84;101386.91;5022929;28;45258;-77
2023/06/30 03:58:14;;;;;;;;;44.25;37.25;;;;;17.29;96.95;101430.69;5040741;28;45536;-77
2023/06/30 04:00:40;;;;;;;;;36.67;32.00;;;;;17.57;97.81;101465.44;5036886;28;45476;-77
2023/06/30 04:03:05;;;;;;;;;41.25;35.25;;;;;17.05;98.44;101385.03;5027457;28;47219;-77
2023/06/30 04:05:37;;;;;;;;;45.00;37.25;;;;;17.26;97.93;101404.16;5030786;28;45572;-77
2023/06/30 04:08:05;;;;;;;;;39.25;34.00;;;;;17.11;96.67;101379.31;5042372;28;45332;-77
2023/06/30 04:10:31;;;;;;;;;34.00;32.00;;;;;17.26;96.07;101431.75;5037184;28;45659;-77
2023/06/30 04:12:56;;;;;;;;;31.67;29.00;;;;;17.23;96.85;101425.75;5025024;28;47288;-77
2023/06/30 04:15:22;;;;;;;;;26.00;25.33;;;;;17.11;96.72;101403.38;5021041;28;45496;-77
2023/06/30 04:18:09;;;;;;;;;35.33;31.33;;;;;17.14;97.70;101409.38;5024349;28;45496;-78
2023/06/30 04:20:37;;;;;;;;;6.67;6.67;;;;;17.00;97.66;101404.03;5018035;28;45392;-78
2023/06/30 04:23:03;;;;;;;;;27.00;27.00;;;;;16.99;97.66;101410.34;5040449;28;46750;-77
2023/06/30 04:25:31;;;;;;;;;31.50;30.00;;;;;17.36;100.00;101477.47;5038500;28;45421;-77
2023/06/30 04:27:59;;;;;;;;;28.33;27.67;;;;;17.02;99.91;101415.47;5023562;28;45476;-77
2023/06/30 04:30:29;;;;;;;;;46.00;36.75;;;;;16.87;100.00;101380.88;5039881;28;45677;-77
2023/06/30 04:33:05;;;;;;;;;44.00;37.00;;;;;16.90;100.00;101378.88;5034630;28;47831;-77
2023/06/30 04:35:33;;;;;;;;;32.25;31.25;;;;;17.36;100.00;101482.81;5029365;28;45472;-77
2023/06/30 04:38:09;;;;;;;;;47.00;38.75;;;;;16.92;100.00;101398.31;5020479;28;45509;-77
2023/06/30 04:40:35;;;;;;;;;40.00;31.50;;;;;17.18;100.00;101452.78;5022425;28;45294;-78
2023/06/30 04:43:02;;;;;;;;;54.25;44.25;;;;;17.32;100.00;101475.94;5008757;28;47189;-77
2023/06/30 04:45:27;;;;;;;;;68.25;54.50;;;;;16.96;100.00;101399.84;5014944;28;45322;-77
2023/06/30 04:47:53;;;;;;;;;80.00;71.75;;;;;16.76;100.00;101362.00;5028908;28;45427;-77
2023/06/30 04:50:21;;;;;;;;;34.00;32.25;;;;;16.87;100.00;101397.78;5020119;28;45584;-77
2023/06/30 04:52:49;;;;;;;;;27.25;27.25;;;;;16.88;100.00;101380.78;5017473;28;45570;-77
2023/06/30 04:55:15;;;;;;;;;61.00;47.25;;;;;16.68;100.00;101338.47;5038461;28;45321;-78
2023/06/30 04:57:41;;;;;;;;;48.25;39.25;;;;;17.18;100.00;101416.22;5035572;28;45490;-77
2023/06/30 05:00:08;;;;;;;;;47.00;36.75;;;;;16.95;100.00;101378.59;5019279;28;45687;-78
2023/06/30 05:02:33;;;;;;;;;30.67;29.33;;;;;17.03;100.00;101386.94;5012439;28;47586;-77
2023/06/30 05:04:58;;;;;;;;;26.00;22.33;;;;;16.94;100.00;101369.69;5021051;28;45388;-77
2023/06/30 05:07:24;;;;;;;;;0.00;0.00;;;;;16.95;100.00;101362.56;5020290;28;45381;-78
2023/06/30 05:09:50;;;;;;;;;17.00;17.00;;;;;17.21;100.00;101406.28;5019405;28;46644;-77
2023/06/30 05:12:19;;;;;;;;;4.00;4.00;;;;;17.59;100.00;101468.84;5038610;28;45721;-77
2023/06/30 05:14:44;;;;;;;;;15.67;15.67;;;;;17.66;100.00;101454.13;5036958;28;46192;-77
2023/06/30 05:17:10;;;;;;;;;16.67;15.67;;;;;17.33;100.00;101405.47;5041863;28;45389;-77
2023/06/30 05:19:36;;;;;;;;;19.67;17.33;;;;;17.48;100.00;101416.03;5038532;28;45617;-77
2023/06/30 05:22:01;;;;;;;;;5.00;3.00;;;;;17.49;100.00;101417.75;5035825;28;46921;-77
2023/06/30 05:24:37;;;;;;;;;7.00;7.00;;;;;17.68;100.00;101466.44;5038853;28;45482;-77
2023/06/30 05:27:05;;;;;;;;;10.33;10.33;;;;;17.19;99.78;101353.78;5034438;28;45464;-77
2023/06/30 05:29:31;;;;;;;;;12.00;9.33;;;;;17.46;100.00;101403.72;5038750;28;45433;-77
2023/06/30 05:32:00;;;;;;;;;18.33;15.00;;;;;17.38;100.00;101368.59;5030516;28;46297;-77
2023/06/30 05:34:25;;;;;;;;;18.67;15.67;;;;;18.02;99.54;101469.53;5036964;28;45485;-78
2023/06/30 05:36:55;;;;;;;;;26.25;24.25;;;;;17.49;97.45;101379.44;5007366;28;45603;-77
2023/06/30 05:39:21;;;;;;;;;5.00;5.00;;;;;18.03;97.08;101431.94;5031772;28;45471;-72
2023/06/30 05:41:46;;;;;;;;;9.67;7.33;;;;;18.35;96.25;101474.41;5033363;28;45498;-72
2023/06/30 05:44:11;;;;;;;;;23.67;22.00;;;;;18.35;94.28;101467.22;5019598;28;45369;-72
2023/06/30 05:46:39;;;;;;;;;4.67;4.67;;;;;18.35;93.59;101467.22;5038240;28;45442;-72
2023/06/30 05:49:06;;;;;;;;;2.00;2.00;;;;;18.42;91.63;101465.00;5019835;28;46141;-72
2023/06/30 05:51:35;;;;;;;;;5.67;5.67;;;;;18.34;92.27;101461.97;5032337;28;45967;-72
2023/06/30 05:54:02;;;;;;;;;3.67;3.67;;;;;18.34;92.71;101459.28;5029706;28;45491;-71
2023/06/30 05:56:29;;;;;;;;;1.00;1.00;;;;;18.42;92.83;101465.81;5031543;28;45309;-71
2023/06/30 05:58:54;;;;;;;;;5.67;3.33;;;;;18.45;92.21;101479.03;5030040;28;45433;-71
2023/06/30 06:01:20;;;;;;;;;3.33;3.33;;;;;18.48;92.29;101472.59;5010178;28;52558;-71
2023/06/30 06:03:46;;;;;;;;;16.00;16.00;;;;;18.51;92.02;101470.59;5028831;28;45362;-71
2023/06/30 06:06:12;;;;;;;;;8.00;8.00;;;;;18.45;93.34;101456.75;5034643;28;45531;-71
2023/06/30 06:08:43;;;;;;;;;2.00;2.00;;;;;18.63;92.68;101472.41;5040864;28;45391;-71
2023/06/30 06:11:09;;;;;;;;;5.67;3.00;;;;;18.72;91.72;101474.44;5030408;28;46410;-71
2023/06/30 06:13:36;;;;;;;;;1.67;1.33;;;;;18.79;90.56;101474.88;5038044;28;45318;-71
2023/06/30 06:16:03;;;;;;;;;2.67;2.67;;;;;18.87;89.07;101471.66;5034459;28;45443;-72
2023/06/30 06:18:29;;;;;;;;;0.33;0.00;;;;;18.92;89.92;101464.97;5035352;28;45487;-71
2023/06/30 06:20:56;;;;;;;;;0.00;0.00;;;;;19.04;86.45;101464.09;5037302;28;46123;-75
2023/06/30 06:23:21;;;;;;;;;3.67;3.67;;;;;19.10;88.80;101477.09;5037185;28;45385;-75
2023/06/30 06:25:47;;;;;;;;;3.00;2.00;;;;;19.15;84.83;101474.06;5015548;28;45449;-75
2023/06/30 06:28:13;;;;;;;;;4.00;4.00;;;;;19.01;85.58;101455.44;5034782;28;45320;-75
2023/06/30 06:30:38;;;;;;;;;8.67;8.33;;;;;19.25;86.23;101480.47;5018368;28;48290;-75
2023/06/30 06:33:03;;;;;;;;;10.00;7.33;;;;;19.21;84.49;101474.47;5042787;28;45367;-74
2023/06/30 06:35:29;;;;;;;;;13.67;13.00;;;;;19.34;83.09;101495.06;5035914;28;45304;-75
2023/06/30 06:38:08;;;;;;;;;14.67;12.67;;;;;19.37;86.36;101490.31;5046636;28;45500;-77
2023/06/30 06:40:33;;;;;;;;;11.33;11.33;;;;;19.52;83.41;101491.91;5014923;28;48213;-76
2023/06/30 06:42:58;;;;;;;;;7.67;7.00;;;;;19.59;77.46;101497.69;5018845;28;45577;-76
2023/06/30 06:45:25;;;;;;;;;2.67;2.00;;;;;19.66;78.51;101497.13;5036459;28;45248;-76
2023/06/30 06:48:26;;;;;;;;;0.00;0.00;;;;;19.73;77.32;101495.69;5024073;28;45571;-76
2023/06/30 06:50:56;;;;;;;;;10.67;10.00;;;;;19.72;77.11;101482.41;5038886;28;46561;-75
2023/06/30 06:53:33;;;;;;;;;5.33;5.33;;;;;19.91;77.49;101496.16;5028856;28;45402;-75
2023/06/30 06:55:59;;;;;;;;;11.67;11.67;;;;;20.00;76.12;101497.28;5027403;28;44860;-75
2023/06/30 06:58:28;;;;;;;;;2.33;2.33;;;;;20.10;76.13;101490.22;5017077;28;45590;-76
2023/06/30 07:00:53;;;;;;;;;6.33;5.67;;;;;20.15;76.38;101482.69;5032940;28;45468;-76
2023/06/30 07:03:19;;;;;;;;;12.33;11.33;;;;;20.34;75.37;101507.22;5041932;28;45372;-76
2023/06/30 07:05:45;;;;;;;;;11.67;11.67;;;;;20.37;72.93;101498.06;5039801;28;45222;-75
2023/06/30 07:08:11;;;;;;;;;14.00;13.00;;;;;20.49;74.60;101502.47;5036614;28;45695;-76
2023/06/30 07:10:37;;;;;;;;;7.00;7.00;;;;;20.58;72.03;101491.84;5044261;28;45479;-76
2023/06/30 07:13:03;;;;;;;;;13.33;9.67;;;;;20.64;71.77;101493.25;5013688;28;45426;-76
2023/06/30 07:15:32;;;;;;;;;13.33;13.00;;;;;20.66;72.67;101481.38;5023478;28;45559;-77
2023/06/30 07:17:57;;;;;;;;;9.67;9.67;;;;;20.83;73.74;101489.94;5019006;28;44807;-77
2023/06/30 07:20:26;;;;;;;;;12.00;12.00;;;;;20.88;70.40;101490.41;5040621;28;46087;-76
2023/06/30 07:22:54;;;;;;;;;16.67;16.67;;;;;20.96;72.31;101493.38;5030484;28;45326;-76
2023/06/30 07:25:19;;;;;;;;;16.33;15.00;;;;;20.97;71.62;101487.88;5030109;28;45507;-76
2023/06/30 07:27:51;;;;;;;;;21.00;15.67;;;;;21.16;70.60;101503.44;5025546;28;46905;-76
2023/06/30 07:30:17;;;;;;;;;0.67;0.00;;;;;21.22;68.52;101497.56;5039021;28;45628;-76
2023/06/30 07:32:42;;;;;;;;;1.00;0.00;;;;;21.23;68.99;101499.28;5037307;28;45413;-76
2023/06/30 07:35:08;;;;;;;;;19.00;18.33;;;;;21.29;69.54;101496.94;5034319;28;50905;-76
2023/06/30 07:37:33;;;;;;;;;20.67;19.00;;;;;21.43;66.58;101500.34;5021850;28;45414;-77
2023/06/30 07:39:58;;;;;;;;;21.33;17.33;;;;;21.55;68.25;101510.13;5018105;28;45845;-76
2023/06/30 07:42:24;;;;;;;;;18.67;18.00;;;;;21.59;67.52;101484.66;5040345;28;45302;-76
2023/06/30 07:44:49;;;;;;;;;0.33;0.00;;;;;21.81;65.39;101507.00;5039518;28;45431;-76
2023/06/30 07:47:16;;;;;;;;;3.67;3.67;;;;;21.83;65.82;101482.59;5021636;28;45389;-76
2023/06/30 07:49:41;;;;;;;;;19.00;17.67;;;;;22.08;65.68;101503.00;5037455;28;45345;-76
2023/06/30 07:52:06;;;;;;;;;13.67;12.00;;;;;22.19;61.97;101503.78;5039292;28;45270;-77
2023/06/30 07:54:32;;;;;;;;;14.67;14.67;;;;;22.24;62.65;101503.41;5040072;28;45369;-76
2023/06/30 07:56:57;;;;;;;;;3.00;3.00;;;;;22.34;63.31;101507.03;5040105;28;45682;-76
2023/06/30 07:59:25;;;;;;;;;12.33;12.33;;;;;22.45;63.30;101508.81;5041525;28;45323;-77
2023/06/30 08:01:51;;;;;;;;;10.67;10.67;;;;;22.51;62.83;101503.72;5027794;28;45275;-77
2023/06/30 08:04:21;;;;;;;;;13.00;12.00;;;;;22.56;62.15;101504.22;5036556;28;45631;-76
2023/06/30 08:06:54;;;;;;;;;12.00;12.00;;;;;22.18;60.80;101431.19;5023226;28;45320;-77
2023/06/30 08:09:20;;;;;;;;;17.00;15.33;;;;;22.38;62.11;101448.34;5042728;28;45603;-77
2023/06/30 08:11:45;;;;;;;;;15.00;13.00;;;;;22.52;63.26;101458.75;5026143;28;45330;-77
2023/06/30 08:14:16;;;;;;;;;10.00;10.00;;;;;23.03;61.70;101507.34;5030864;28;45370;-77
2023/06/30 08:16:53;;;;;;;;;11.33;11.33;;;;;23.17;60.29;101515.06;5046968;28;45674;-77
2023/06/30 08:19:54;;;;;;;;;12.33;11.33;;;;;22.92;58.56;101462.41;5020775;28;47599;-76
2023/06/30 08:22:37;;;;;;;;;9.67;9.67;;;;;22.70;56.90;101433.78;5012596;28;45705;-77
2023/06/30 08:25:21;;;;;;;;;13.33;12.33;;;;;22.77;58.04;101455.69;5028238;28;45443;-76
2023/06/30 08:27:52;;;;;;;;;6.00;6.00;;;;;22.58;55.94;101431.25;5021750;28;45568;-76
2023/06/30 08:30:17;;;;;;;;;10.33;9.00;;;;;22.47;58.45;101423.28;5052247;28;46153;-77
2023/06/30 08:32:45;;;;;;;;;9.33;9.33;;;;;22.73;56.80;101455.09;5031870;28;45468;-77
2023/06/30 08:35:15;;;;;;;;;10.33;8.67;;;;;22.72;58.75;101420.16;5036515;28;45485;-77
2023/06/30 08:37:42;;;;;;;;;11.00;8.33;;;;;23.11;55.29;101461.63;5010916;28;45337;-77
2023/06/30 08:40:09;;;;;;;;;1.00;1.00;;;;;23.32;54.33;101471.38;5029453;28;47343;-77
2023/06/30 08:42:40;;;;;;;;;7.33;7.33;;;;;23.46;55.12;101466.59;5035676;28;45511;-77
2023/06/30 08:45:20;;;;;;;;;6.00;6.00;;;;;23.50;53.28;101446.41;5034625;28;45501;-77
2023/06/30 08:47:54;;;;;;;;;5.00;5.00;;;;;23.82;52.69;101452.44;5033939;28;45656;-76
2023/06/30 08:50:26;;;;;;;;;9.67;9.33;;;;;23.60;52.91;101391.41;5054585;28;46364;-76
2023/06/30 08:53:00;;;;;;;;;6.00;5.00;;;;;24.24;51.21;101471.94;5040717;28;45538;-77
2023/06/30 08:55:32;;;;;;;;;9.33;7.67;;;;;24.01;49.46;101420.00;5011778;28;45408;-76
2023/06/30 08:58:13;;;;;;;;;7.00;6.67;;;;;24.44;49.47;101479.03;5019281;28;45443;-76
2023/06/30 09:00:42;;;;;;;;;8.00;6.00;;;;;24.17;48.98;101414.03;5019832;28;46992;-76
2023/06/30 09:03:24;;;;;;;;;4.67;4.67;;;;;24.05;49.88;101377.34;5013561;28;45322;-77
2023/06/30 09:06:02;;;;;;;;;2.00;2.00;;;;;24.69;47.75;101469.41;5035765;28;45537;-78
2023/06/30 09:08:56;;;;;;;;;0.00;0.00;;;;;24.67;48.49;101469.53;5012832;28;45544;-77
2023/06/30 09:11:35;;;;;;;;;7.00;7.00;;;;;24.34;49.81;101397.06;5015674;28;45409;-77
2023/06/30 09:14:13;;;;;;;;;7.33;6.00;;;;;24.66;50.11;101412.91;5020593;28;46007;-77
2023/06/30 09:17:49;;;;;;;;;0.00;0.00;;;;;25.15;51.11;101460.44;5013308;28;45531;-77
2023/06/30 09:20:32;;;;;;;;;10.00;8.33;;;;;25.29;49.98;101462.66;5033769;28;45521;-77
2023/06/30 09:23:05;;;;;;;;;6.00;6.00;;;;;25.29;49.89;101473.47;5024801;28;45499;-78
2023/06/30 09:25:52;;;;;;;;;7.67;7.00;;;;;25.38;50.70;101461.72;5032174;28;45494;-78
2023/06/30 09:28:42;;;;;;;;;7.00;7.00;;;;;25.09;49.84;101390.66;5030687;28;45445;-78
2023/06/30 09:31:37;;;;;;;;;6.33;6.33;;;;;25.79;51.29;101457.59;5021776;28;45543;-78
2023/06/30 09:34:28;;;;;;;;;0.00;0.00;;;;;25.94;47.68;101442.53;5019836;28;46355;-78
2023/06/30 09:37:16;;;;;;;;;8.00;8.00;;;;;25.59;49.17;101386.47;5029146;28;45523;-79
2023/06/30 09:39:54;;;;;;;;;8.00;7.00;;;;;25.32;48.73;101394.63;5031555;28;45480;-78
2023/06/30 09:42:24;;;;;;;;;2.67;1.00;;;;;25.39;48.53;101463.44;5024402;28;45302;-79
2023/06/30 09:48:29;;;;;;;;;6.00;6.00;;;;;24.92;48.26;101392.31;5025551;28;45591;-77
2023/06/30 09:51:22;;;;;;;;;7.33;7.33;;;;;25.21;48.79;101439.03;5021409;28;45471;-78
2023/06/30 09:54:16;;;;;;;;;7.00;7.00;;;;;25.01;47.07;101380.56;5017022;28;45540;-78
2023/06/30 09:57:05;;;;;;;;;0.00;0.00;;;;;25.37;46.98;101390.44;5025767;28;46538;-78
2023/06/30 09:59:33;;;;;;;;;6.00;6.00;;;;;25.33;44.08;101367.38;5026087;28;45519;-78
2023/06/30 10:02:16;;;;;;;;;8.67;7.33;;;;;25.93;45.62;101443.53;5019640;28;45425;-78
2023/06/30 10:05:07;;;;;;;;;6.00;6.00;;;;;25.78;42.43;101397.16;5027513;28;45501;-78
2023/06/30 10:07:46;;;;;;;;;7.33;6.00;;;;;25.97;42.67;101392.56;5044864;28;46057;-77
2023/06/30 10:10:51;;;;;;;;;5.00;5.00;;;;;26.05;44.71;101430.56;5019470;28;44887;-78
2023/06/30 10:13:58;;;;;;;;;7.00;7.00;;;;;25.50;42.97;101400.09;5036531;28;45413;-78
2023/06/30 10:16:51;;;;;;;;;7.00;7.00;;;;;25.34;43.57;101401.59;5021666;28;45456;-78
2023/06/30 10:22:46;;;;;;;;;7.00;7.00;;;;;25.59;45.61;101437.09;5036603;28;45435;-78
2023/06/30 10:25:43;;;;;;;;;6.00;6.00;;;;;25.14;46.51;101378.34;5018614;28;45383;-78
2023/06/30 10:31:45;;;;;;;;;9.67;7.33;;;;;24.59;45.95;101358.53;5037690;28;46188;-78
2023/06/30 10:34:32;;;;;;;;;11.00;8.67;;;;;25.10;46.14;101381.50;5021250;28;45414;-77
2023/06/30 10:37:27;;;;;;;;;5.33;5.33;;;;;25.48;45.27;101385.81;5038745;28;45440;-79
2023/06/30 10:40:25;;;;;;;;;8.33;8.33;;;;;25.63;44.00;101377.03;5018406;28;45521;-78
2023/06/30 10:43:26;;;;;;;;;5.00;5.00;;;;;25.86;46.09;101336.72;5039100;28;45572;-79
2023/06/30 10:46:21;;;;;;;;;7.00;7.00;;;;;26.60;46.30;101433.91;5020714;28;45519;-78
2023/06/30 10:48:51;;;;;;;;;2.00;2.00;;;;;26.28;43.51;101385.69;5014076;28;45555;-78
2023/06/30 10:51:35;;;;;;;;;7.67;7.67;;;;;25.95;43.19;101362.88;5018550;28;45643;-77
2023/06/30 10:54:37;;;;;;;;;6.00;6.00;;;;;26.17;41.46;101394.09;5045516;28;46282;-77
2023/06/30 10:57:48;;;;;;;;;5.00;5.00;;;;;26.04;42.54;101372.81;5015161;28;45362;-77
2023/06/30 11:04:09;;;;;;;;;5.67;5.33;;;;;26.93;45.04;101428.50;5030934;28;45613;-77
2023/06/30 11:07:00;;;;;;;;;0.00;0.00;;;;;26.70;42.44;101370.31;5029964;28;47757;-77
2023/06/30 11:13:45;;;;;;;;;5.00;5.00;;;;;26.05;42.89;101351.94;5033657;28;45400;-77
2023/06/30 11:16:46;;;;;;;;;3.33;2.67;;;;;25.98;42.34;101388.84;4993084;28;45488;-77
2023/06/30 11:19:32;;;;;;;;;6.67;6.67;;;;;25.63;42.60;101363.47;5009241;28;46319;-77
2023/06/30 11:22:32;;;;;;;;;6.00;6.00;;;;;26.18;43.83;101415.63;5019867;28;45387;-77
2023/06/30 11:25:34;;;;;;;;;6.00;6.00;;;;;26.14;41.78;101357.28;5039763;28;45552;-77
2023/06/30 11:28:41;;;;;;;;;3.67;0.67;;;;;26.56;43.48;101395.38;5011250;28;45766;-78
2023/06/30 11:31:14;;;;;;;;;6.33;6.33;;;;;26.31;43.32;101374.53;5003993;28;46559;-77
2023/06/30 11:33:53;;;;;;;;;1.67;1.67;;;;;26.30;42.41;101362.84;5026817;28;45341;-77
2023/06/30 11:36:28;;;;;;;;;0.00;0.00;;;;;26.04;41.92;101356.53;5040930;28;45279;-77
2023/06/30 11:39:14;;;;;;;;;6.67;6.67;;;;;25.92;43.92;101383.03;5021714;28;45359;-77
2023/06/30 11:45:29;;;;;;;;;6.00;5.33;;;;;26.58;41.94;101398.75;5038067;28;45380;-77
2023/06/30 11:48:15;;;;;;;;;0.00;0.00;;;;;26.31;41.69;101359.09;5019911;28;45438;-77
2023/06/30 11:50:58;;;;;;;;;0.00;0.00;;;;;26.27;42.37;101336.03;5012046;28;46200;-78
2023/06/30 11:53:53;;;;;;;;;6.00;5.00;;;;;27.04;41.94;101394.78;5034992;28;45415;-78
2023/06/30 11:57:08;;;;;;;;;6.33;6.33;;;;;27.15;39.19;101390.91;5022526;28;45455;-78
2023/06/30 12:00:07;;;;;;;;;6.00;5.67;;;;;26.87;41.20;101306.13;5019750;28;45503;-78
2023/06/30 12:02:47;;;;;;;;;;;;;;;;;;;;;
2023/06/30 12:05:48;;;;;;;;;1.00;1.00;;;;;27.40;41.10;101294.84;5022090;28;75543;-78
2023/06/30 12:08:30;;;;;;;;;8.00;7.00;;;;;28.15;40.55;101388.00;5029862;28;45632;-78